createdAt,value
2018-03-28T00:00:02.402Z,41.20
2018-03-28T00:01:02.495Z,41.40
2018-03-28T00:02:02.629Z,43.00
2018-03-28T00:03:02.768Z,43.50
2018-03-28T00:04:02.899Z,42.90
2018-03-28T00:05:03.031Z,42.90
2018-03-28T00:06:03.165Z,42.00
2018-03-28T00:07:03.295Z,42.20
2018-03-28T00:08:03.451Z,43.00
2018-03-28T00:09:03.584Z,42.00
2018-03-28T00:10:03.735Z,42.00
2018-03-28T00:11:03.865Z,41.60
2018-03-28T00:12:03.999Z,41.80
2018-03-28T00:13:04.141Z,41.40
2018-03-28T00:14:04.264Z,42.20
2018-03-28T00:15:04.397Z,41.30
2018-03-28T00:16:04.534Z,38.50
2018-03-28T00:17:04.666Z,38.50
2018-03-28T00:18:04.797Z,39.40
2018-03-28T00:19:04.922Z,37.50
2018-03-28T00:20:05.082Z,36.30
2018-03-28T00:21:05.229Z,37.10
2018-03-28T00:22:05.364Z,39.80
2018-03-28T00:23:05.494Z,36.30
2018-03-28T00:24:05.631Z,38.00
2018-03-28T00:25:05.769Z,35.30
2018-03-28T00:26:05.906Z,35.70
2018-03-28T00:27:06.038Z,37.80
2018-03-28T00:28:06.264Z,35.70
2018-03-28T00:29:06.622Z,36.10
2018-03-28T00:30:06.381Z,38.00
2018-03-28T00:31:06.515Z,37.20
2018-03-28T00:32:06.684Z,39.90
2018-03-28T00:33:06.806Z,37.70
2018-03-28T00:34:06.942Z,39.80
2018-03-28T00:35:07.070Z,37.20
2018-03-28T00:36:07.366Z,41.20
2018-03-28T00:37:07.333Z,38.70
2018-03-28T00:38:07.474Z,38.10
2018-03-28T00:39:07.607Z,37.50
2018-03-28T00:40:07.742Z,36.20
2018-03-28T00:41:07.933Z,36.40
2018-03-28T00:42:08.087Z,40.60
2018-03-28T00:43:13.135Z,38.40
2018-03-28T00:44:08.396Z,39.70
2018-03-28T00:45:08.525Z,36.70
2018-03-28T00:46:08.673Z,40.20
2018-03-28T00:47:08.801Z,40.40
2018-03-28T00:48:08.935Z,42.30
2018-03-28T00:49:09.069Z,38.90
2018-03-28T00:50:09.201Z,41.00
2018-03-28T00:51:09.330Z,41.60
2018-03-28T00:52:09.465Z,39.80
2018-03-28T00:53:09.602Z,38.40
2018-03-28T00:54:09.741Z,42.70
2018-03-28T00:55:09.881Z,42.60
2018-03-28T00:56:10.014Z,39.60
2018-03-28T00:57:10.157Z,40.70
2018-03-28T00:58:10.287Z,40.80
2018-03-28T00:59:10.421Z,41.20
2018-03-28T01:00:11.077Z,40.20
2018-03-28T01:01:10.731Z,41.00
2018-03-28T01:02:10.864Z,39.50
2018-03-28T01:03:10.996Z,44.10
2018-03-28T01:04:11.130Z,43.00
2018-03-28T01:05:11.267Z,45.40
2018-03-28T01:06:11.402Z,42.20
2018-03-28T01:07:11.538Z,45.20
2018-03-28T01:08:11.672Z,45.70
2018-03-28T01:09:11.804Z,43.70
2018-03-28T01:10:11.940Z,42.50
2018-03-28T01:11:12.077Z,42.50
2018-03-28T01:12:12.210Z,43.20
2018-03-28T01:13:12.344Z,45.30
2018-03-28T01:14:12.519Z,44.80
2018-03-28T01:15:12.632Z,44.80
2018-03-28T01:16:12.769Z,47.40
2018-03-28T01:17:12.900Z,44.60
2018-03-28T01:18:13.045Z,48.10
2018-03-28T01:19:13.171Z,45.70
2018-03-28T01:20:13.315Z,49.20
2018-03-28T01:21:13.443Z,49.00
2018-03-28T01:22:13.591Z,47.70
2018-03-28T01:23:14.566Z,46.90
2018-03-28T01:24:13.862Z,49.60
2018-03-28T01:25:14.002Z,44.40
2018-03-28T01:26:14.154Z,48.00
2018-03-28T01:27:14.291Z,44.30
2018-03-28T01:28:14.425Z,40.50
2018-03-28T01:29:14.585Z,39.30
2018-03-28T01:30:14.807Z,37.90
2018-03-28T01:31:14.808Z,40.60
2018-03-28T01:32:15.790Z,41.30
2018-03-28T01:33:15.132Z,38.20
2018-03-28T01:34:15.337Z,40.50
2018-03-28T01:35:15.346Z,40.30
2018-03-28T01:36:15.480Z,41.40
2018-03-28T01:37:15.662Z,44.00
2018-03-28T01:38:15.772Z,40.90
2018-03-28T01:39:15.901Z,41.80
2018-03-28T01:40:16.038Z,39.50
2018-03-28T01:41:16.185Z,42.80
2018-03-28T01:42:16.311Z,37.90
2018-03-28T01:43:16.445Z,37.70
2018-03-28T01:44:16.576Z,35.40
2018-03-28T01:45:16.734Z,38.80
2018-03-28T01:46:16.863Z,38.70
2018-03-28T01:47:16.995Z,35.40
2018-03-28T01:48:17.141Z,38.50
2018-03-28T01:49:28.033Z,38.10
2018-03-28T01:50:17.467Z,37.90
2018-03-28T01:51:17.551Z,41.40
2018-03-28T01:52:17.692Z,41.10
2018-03-28T01:53:17.924Z,36.70
2018-03-28T01:54:17.931Z,37.40
2018-03-28T01:55:18.070Z,38.00
2018-03-28T01:56:18.218Z,40.20
2018-03-28T01:57:18.347Z,36.00
2018-03-28T01:58:18.565Z,29.50
2018-03-28T01:59:18.574Z,32.00
2018-03-28T02:00:18.709Z,29.60
2018-03-28T02:01:18.841Z,32.90
2018-03-28T02:02:19.002Z,28.80
2018-03-28T02:03:19.131Z,31.10
2018-03-28T02:04:19.269Z,30.00
2018-03-28T02:05:19.402Z,27.40
2018-03-28T02:06:19.552Z,30.80
2018-03-28T02:08:52.366Z,29.80
2018-03-28T02:09:52.502Z,27.20
2018-03-28T02:10:52.636Z,29.20
2018-03-28T02:11:52.784Z,26.50
2018-03-28T02:12:52.967Z,29.20
2018-03-28T02:13:53.098Z,26.50
2018-03-28T02:14:53.239Z,25.50
2018-03-28T02:15:53.390Z,26.10
2018-03-28T02:16:53.931Z,25.80
2018-03-28T02:17:53.691Z,25.70
2018-03-28T02:18:53.823Z,26.30
2018-03-28T02:19:53.989Z,24.00
2018-03-28T02:22:26.456Z,28.90
2018-03-28T02:23:26.590Z,24.30
2018-03-28T02:24:26.728Z,25.80
2018-03-28T02:25:26.866Z,25.30
2018-03-28T02:26:27.052Z,29.60
2018-03-28T02:27:27.190Z,26.40
2018-03-28T02:28:27.319Z,28.50
2018-03-28T02:29:27.459Z,25.90
2018-03-28T02:30:38.233Z,26.00
2018-03-28T02:31:27.735Z,25.60
2018-03-28T02:32:27.869Z,25.50
2018-03-28T02:33:28.021Z,25.60
2018-03-28T02:34:28.151Z,24.90
2018-03-28T02:35:28.284Z,23.20
2018-03-28T02:36:28.415Z,23.70
2018-03-28T02:37:28.579Z,24.60
2018-03-28T02:38:28.694Z,26.00
2018-03-28T02:39:28.828Z,23.30
2018-03-28T02:40:28.962Z,22.10
2018-03-28T02:41:29.125Z,24.00
2018-03-28T02:42:29.250Z,24.40
2018-03-28T02:43:29.385Z,24.20
2018-03-28T02:44:29.517Z,27.40
2018-03-28T02:45:29.645Z,24.70
2018-03-28T02:46:29.780Z,27.40
2018-03-28T02:47:29.917Z,24.90
2018-03-28T02:48:30.049Z,24.40
2018-03-28T02:49:30.204Z,26.00
2018-03-28T02:50:41.244Z,24.30
2018-03-28T02:51:30.498Z,22.90
2018-03-28T02:52:30.635Z,22.00
2018-03-28T02:53:30.812Z,25.20
2018-03-28T02:54:30.840Z,25.90
2018-03-28T02:55:30.981Z,23.70
2018-03-28T02:56:31.122Z,22.60
2018-03-28T02:57:31.357Z,23.90
2018-03-28T02:58:31.363Z,22.90
2018-03-28T02:59:31.497Z,23.80
2018-03-28T03:00:31.658Z,22.90
2018-03-28T03:01:31.779Z,22.30
2018-03-28T03:02:31.913Z,21.80
2018-03-28T03:03:32.043Z,21.20
2018-03-28T03:04:32.184Z,21.90
2018-03-28T03:05:32.335Z,21.70
2018-03-28T03:06:32.461Z,22.30
2018-03-28T03:07:32.614Z,22.00
2018-03-28T03:08:32.776Z,22.90
2018-03-28T03:09:46.458Z,21.20
2018-03-28T03:10:33.090Z,21.10
2018-03-28T03:11:33.228Z,21.70
2018-03-28T03:12:33.417Z,19.70
2018-03-28T03:13:38.439Z,19.90
2018-03-28T03:14:33.571Z,19.30
2018-03-28T03:15:33.705Z,20.80
2018-03-28T03:16:33.861Z,19.10
2018-03-28T03:17:34.047Z,22.00
2018-03-28T03:18:34.054Z,19.80
2018-03-28T03:19:34.189Z,21.40
2018-03-28T03:20:34.340Z,20.20
2018-03-28T03:21:34.472Z,22.20
2018-03-28T03:22:34.602Z,21.20
2018-03-28T03:23:34.745Z,19.40
2018-03-28T03:24:34.880Z,20.80
2018-03-28T03:25:35.009Z,20.60
2018-03-28T03:26:35.144Z,18.50
2018-03-28T03:27:35.274Z,18.50
2018-03-28T03:28:35.436Z,18.70
2018-03-28T03:29:39.075Z,21.90
2018-03-28T03:30:35.707Z,19.80
2018-03-28T03:31:35.839Z,21.40
2018-03-28T03:32:35.995Z,19.50
2018-03-28T03:33:36.122Z,19.70
2018-03-28T03:34:36.257Z,20.20
2018-03-28T03:35:36.389Z,18.30
2018-03-28T03:36:36.576Z,19.60
2018-03-28T03:37:36.737Z,19.30
2018-03-28T03:38:36.873Z,17.90
2018-03-28T03:39:37.006Z,19.60
2018-03-28T03:40:37.175Z,18.30
2018-03-28T03:41:37.310Z,20.20
2018-03-28T03:42:37.445Z,18.20
2018-03-28T03:43:37.580Z,18.40
2018-03-28T03:44:37.720Z,19.10
2018-03-28T03:45:37.850Z,17.50
2018-03-28T03:46:37.985Z,16.20
2018-03-28T03:47:38.118Z,15.80
2018-03-28T03:48:38.285Z,17.00
2018-03-28T03:49:38.414Z,19.30
2018-03-28T03:50:38.548Z,17.90
2018-03-28T03:51:38.709Z,18.40
2018-03-28T03:52:38.855Z,17.20
2018-03-28T03:53:38.985Z,19.20
2018-03-28T03:54:39.118Z,18.70
2018-03-28T03:55:39.251Z,16.50
2018-03-28T03:56:39.404Z,24.80
2018-03-28T03:57:39.535Z,19.80
2018-03-28T03:58:39.666Z,20.60
2018-03-28T03:59:39.798Z,16.90
2018-03-28T04:00:39.959Z,18.70
2018-03-28T04:01:40.091Z,21.20
2018-03-28T04:02:40.219Z,19.10
2018-03-28T04:03:40.363Z,18.10
2018-03-28T04:04:40.520Z,17.20
2018-03-28T04:05:40.646Z,16.20
2018-03-28T04:06:40.778Z,19.00
2018-03-28T04:07:40.910Z,19.60
2018-03-28T04:08:41.056Z,20.80
2018-03-28T04:09:41.184Z,17.60
2018-03-28T04:10:41.325Z,18.50
2018-03-28T04:11:41.452Z,17.30
2018-03-28T04:12:41.615Z,18.60
2018-03-28T04:13:41.742Z,19.00
2018-03-28T04:14:41.876Z,16.50
2018-03-28T04:15:42.007Z,19.10
2018-03-28T04:16:42.167Z,15.70
2018-03-28T04:17:42.290Z,17.00
2018-03-28T04:18:42.421Z,15.10
2018-03-28T04:19:42.559Z,16.10
2018-03-28T04:20:42.712Z,15.70
2018-03-28T04:21:42.847Z,16.10
2018-03-28T04:22:42.987Z,15.50
2018-03-28T04:23:43.120Z,17.20
2018-03-28T04:24:43.274Z,15.70
2018-03-28T04:25:44.644Z,16.40
2018-03-28T04:26:43.533Z,16.90
2018-03-28T04:27:43.659Z,16.30
2018-03-28T04:28:43.825Z,17.30
2018-03-28T04:29:44.050Z,17.50
2018-03-28T04:30:44.053Z,17.50
2018-03-28T04:31:44.183Z,21.80
2018-03-28T04:32:44.347Z,20.80
2018-03-28T04:33:44.582Z,18.10
2018-03-28T04:34:44.591Z,16.00
2018-03-28T04:35:44.728Z,16.60
2018-03-28T04:36:44.879Z,17.70
2018-03-28T04:37:55.890Z,18.60
2018-03-28T04:38:45.143Z,20.20
2018-03-28T04:39:45.279Z,18.60
2018-03-28T04:40:45.419Z,16.10
2018-03-28T04:41:45.551Z,15.20
2018-03-28T04:42:45.682Z,14.70
2018-03-28T04:43:45.879Z,16.00
2018-03-28T04:44:45.984Z,15.70
2018-03-28T04:45:46.106Z,14.10
2018-03-28T04:46:46.246Z,15.00
2018-03-28T04:47:46.377Z,16.40
2018-03-28T04:48:46.531Z,16.90
2018-03-28T04:49:46.743Z,19.40
2018-03-28T04:50:46.748Z,16.70
2018-03-28T04:51:46.886Z,15.80
2018-03-28T04:52:47.040Z,15.80
2018-03-28T04:53:47.188Z,16.10
2018-03-28T04:54:47.346Z,17.40
2018-03-28T04:55:47.452Z,16.30
2018-03-28T04:56:47.596Z,16.30
2018-03-28T04:57:47.822Z,14.60
2018-03-28T04:58:47.828Z,14.80
2018-03-28T04:59:47.972Z,15.10
2018-03-28T05:00:48.123Z,15.50
2018-03-28T05:01:48.246Z,15.80
2018-03-28T05:02:48.381Z,15.00
2018-03-28T05:03:48.514Z,15.00
2018-03-28T05:04:48.660Z,16.90
2018-03-28T05:05:48.796Z,16.00
2018-03-28T05:06:48.926Z,17.40
2018-03-28T05:07:49.063Z,15.20
2018-03-28T05:08:49.216Z,15.40
2018-03-28T05:09:49.430Z,17.70
2018-03-28T05:10:49.441Z,14.60
2018-03-28T05:11:49.575Z,15.70
2018-03-28T05:12:49.716Z,15.20
2018-03-28T05:13:49.853Z,16.30
2018-03-28T05:14:49.983Z,17.50
2018-03-28T05:15:50.118Z,15.70
2018-03-28T05:16:50.279Z,14.40
2018-03-28T05:17:50.406Z,16.20
2018-03-28T05:18:50.549Z,15.90
2018-03-28T05:19:50.681Z,16.10
2018-03-28T05:20:50.841Z,15.90
2018-03-28T05:21:50.975Z,15.40
2018-03-28T05:22:51.104Z,16.20
2018-03-28T05:23:51.244Z,15.30
2018-03-28T05:24:51.395Z,15.30
2018-03-28T05:25:51.528Z,15.10
2018-03-28T05:26:51.660Z,15.20
2018-03-28T05:27:51.794Z,16.00
2018-03-28T05:28:51.941Z,15.60
2018-03-28T05:29:52.075Z,15.50
2018-03-28T05:30:52.216Z,15.70
2018-03-28T05:31:52.338Z,15.70
2018-03-28T05:32:52.480Z,15.60
2018-03-28T05:33:52.664Z,16.40
2018-03-28T05:34:52.799Z,15.10
2018-03-28T05:35:52.937Z,15.40
2018-03-28T05:36:53.097Z,15.90
2018-03-28T05:37:53.219Z,16.20
2018-03-28T05:38:53.351Z,15.30
2018-03-28T05:39:53.485Z,15.20
2018-03-28T05:40:53.631Z,15.80
2018-03-28T05:41:53.839Z,15.90
2018-03-28T05:42:53.851Z,15.80
2018-03-28T05:43:53.984Z,16.20
2018-03-28T05:44:54.147Z,15.10
2018-03-28T05:45:54.256Z,15.60
2018-03-28T05:46:54.387Z,16.80
2018-03-28T05:47:54.529Z,15.70
2018-03-28T05:48:54.673Z,16.80
2018-03-28T05:49:54.802Z,15.80
2018-03-28T05:50:54.942Z,15.80
2018-03-28T05:51:55.076Z,16.90
2018-03-28T05:52:55.224Z,16.50
2018-03-28T05:53:55.354Z,16.10
2018-03-28T05:54:55.488Z,17.20
2018-03-28T05:55:55.669Z,15.80
2018-03-28T05:56:55.772Z,16.50
2018-03-28T05:57:55.902Z,15.80
2018-03-28T05:58:56.040Z,16.70
2018-03-28T05:59:56.172Z,16.10
2018-03-28T06:00:56.338Z,16.30
2018-03-28T06:01:56.517Z,16.30
2018-03-28T06:02:56.593Z,15.50
2018-03-28T06:03:56.726Z,15.50
2018-03-28T06:04:56.912Z,15.30
2018-03-28T06:05:57.041Z,16.80
2018-03-28T06:06:57.177Z,16.30
2018-03-28T06:07:57.311Z,16.10
2018-03-28T06:08:57.482Z,16.80
2018-03-28T06:09:57.714Z,16.50
2018-03-28T06:10:57.722Z,15.90
2018-03-28T06:11:57.856Z,16.40
2018-03-28T06:12:58.032Z,16.60
2018-03-28T06:13:58.128Z,16.60
2018-03-28T06:14:58.262Z,19.40
2018-03-28T06:15:58.391Z,17.60
2018-03-28T06:16:58.548Z,17.00
2018-03-28T06:17:58.683Z,16.20
2018-03-28T06:18:58.821Z,17.30
2018-03-28T06:19:58.953Z,16.90
2018-03-28T06:20:59.107Z,16.80
2018-03-28T06:21:59.225Z,17.40
2018-03-28T06:22:59.360Z,17.40
2018-03-28T06:23:59.500Z,17.00
2018-03-28T06:24:59.698Z,17.00
2018-03-28T06:26:04.287Z,17.70
2018-03-28T06:26:59.921Z,17.30
2018-03-28T06:28:00.055Z,17.80
2018-03-28T06:29:00.210Z,16.90
2018-03-28T06:30:00.356Z,17.20
2018-03-28T06:31:00.475Z,17.70
2018-03-28T06:32:00.616Z,17.30
2018-03-28T06:33:00.782Z,17.10
2018-03-28T06:34:00.891Z,16.70
2018-03-28T06:35:01.028Z,17.20
2018-03-28T06:36:01.159Z,19.30
2018-03-28T06:37:01.336Z,22.20
2018-03-28T06:38:01.591Z,21.00
2018-03-28T06:39:01.616Z,19.70
2018-03-28T06:40:01.738Z,22.60
2018-03-28T06:41:01.874Z,26.50
2018-03-28T06:42:02.023Z,25.20
2018-03-28T06:43:02.155Z,18.10
2018-03-28T06:44:02.300Z,19.30
2018-03-28T06:45:02.454Z,18.20
2018-03-28T06:46:02.582Z,21.20
2018-03-28T06:47:02.720Z,18.50
2018-03-28T06:48:02.846Z,19.40
2018-03-28T06:49:03.011Z,18.90
2018-03-28T06:50:03.203Z,19.20
2018-03-28T06:51:03.328Z,21.20
2018-03-28T06:52:03.525Z,19.70
2018-03-28T06:53:03.599Z,15.90
2018-03-28T06:54:03.849Z,13.60
2018-03-28T06:55:03.913Z,14.40
2018-03-28T06:56:03.994Z,13.50
2018-03-28T06:57:04.145Z,13.50
2018-03-28T06:58:04.281Z,18.00
2018-03-28T06:59:04.410Z,15.70
2018-03-28T07:00:04.545Z,13.60
2018-03-28T07:01:04.684Z,13.80
2018-03-28T07:02:04.920Z,15.80
2018-03-28T07:03:04.925Z,12.90
2018-03-28T07:04:05.070Z,11.80
2018-03-28T07:05:05.208Z,13.90
2018-03-28T07:06:05.338Z,12.80
2018-03-28T07:07:05.476Z,13.30
2018-03-28T07:08:05.608Z,18.40
2018-03-28T07:09:05.762Z,16.30
2018-03-28T07:10:05.907Z,14.90
2018-03-28T07:11:06.038Z,14.90
2018-03-28T07:12:06.169Z,18.40
2018-03-28T07:13:06.324Z,18.20
2018-03-28T07:14:06.538Z,12.90
2018-03-28T07:15:06.550Z,13.30
2018-03-28T07:16:06.689Z,13.10
2018-03-28T07:17:06.833Z,13.10
2018-03-28T07:18:06.968Z,13.30
2018-03-28T07:19:07.096Z,13.70
2018-03-28T07:20:07.245Z,14.40
2018-03-28T07:21:07.391Z,12.90
2018-03-28T07:22:07.615Z,15.30
2018-03-28T07:23:07.620Z,13.30
2018-03-28T07:24:07.751Z,13.10
2018-03-28T07:25:07.909Z,14.90
2018-03-28T07:26:08.038Z,13.20
2018-03-28T07:27:08.174Z,13.80
2018-03-28T07:28:08.300Z,12.90
2018-03-28T07:29:08.452Z,13.10
2018-03-28T07:30:08.587Z,13.00
2018-03-28T07:31:08.723Z,13.50
2018-03-28T07:32:08.870Z,12.90
2018-03-28T07:33:09.054Z,13.20
2018-03-28T07:34:09.183Z,13.80
2018-03-28T07:35:09.322Z,13.70
2018-03-28T07:36:09.457Z,12.90
2018-03-28T07:37:09.611Z,13.90
2018-03-28T07:38:09.726Z,13.40
2018-03-28T07:39:09.870Z,16.40
2018-03-28T07:40:10.008Z,12.90
2018-03-28T07:41:10.161Z,13.00
2018-03-28T07:42:10.408Z,12.70
2018-03-28T07:43:10.421Z,12.20
2018-03-28T07:44:10.553Z,13.60
2018-03-28T07:45:10.704Z,12.70
2018-03-28T07:46:10.832Z,12.40
2018-03-28T07:47:10.975Z,12.70
2018-03-28T07:48:11.114Z,13.60
2018-03-28T07:49:11.285Z,14.00
2018-03-28T07:50:11.485Z,14.10
2018-03-28T07:51:11.497Z,18.10
2018-03-28T07:52:11.627Z,15.70
2018-03-28T07:53:11.787Z,13.50
2018-03-28T07:54:11.921Z,15.70
2018-03-28T07:55:12.059Z,13.80
2018-03-28T07:56:12.190Z,15.30
2018-03-28T07:57:12.380Z,19.10
2018-03-28T07:58:12.506Z,16.70
2018-03-28T07:59:12.652Z,15.40
2018-03-28T08:00:12.783Z,15.40
2018-03-28T08:01:12.916Z,13.20
2018-03-28T08:02:13.047Z,15.20
2018-03-28T08:03:13.200Z,14.60
2018-03-28T08:04:13.334Z,15.30
2018-03-28T08:05:13.469Z,14.90
2018-03-28T08:06:13.608Z,13.30
2018-03-28T08:07:13.778Z,14.30
2018-03-28T08:08:13.910Z,14.90
2018-03-28T08:09:14.052Z,15.90
2018-03-28T08:10:14.188Z,13.50
2018-03-28T08:11:14.357Z,14.20
2018-03-28T08:12:14.483Z,18.00
2018-03-28T08:13:14.614Z,17.40
2018-03-28T08:14:14.747Z,12.70
2018-03-28T08:15:14.875Z,15.30
2018-03-28T08:16:15.012Z,16.30
2018-03-28T08:17:15.152Z,15.80
2018-03-28T08:18:15.296Z,13.30
2018-03-28T08:19:15.488Z,14.20
2018-03-28T08:20:15.569Z,15.60
2018-03-28T08:21:15.705Z,17.80
2018-03-28T08:22:15.847Z,15.80
2018-03-28T08:23:15.989Z,14.20
2018-03-28T08:24:16.132Z,14.20
2018-03-28T08:25:16.264Z,15.40
2018-03-28T08:26:16.403Z,15.50
2018-03-28T08:27:16.537Z,14.20
2018-03-28T08:28:16.666Z,18.20
2018-03-28T08:29:16.810Z,14.60
2018-03-28T08:30:16.950Z,16.80
2018-03-28T08:31:17.089Z,14.80
2018-03-28T08:32:17.235Z,13.60
2018-03-28T08:33:17.369Z,14.30
2018-03-28T08:34:17.509Z,12.60
2018-03-28T08:35:17.632Z,16.70
2018-03-28T08:36:17.776Z,15.40
2018-03-28T08:37:17.901Z,14.20
2018-03-28T08:38:18.046Z,14.70
2018-03-28T08:39:18.180Z,11.30
2018-03-28T08:40:18.317Z,13.40
2018-03-28T08:41:18.448Z,15.10
2018-03-28T08:42:18.583Z,17.00
2018-03-28T08:43:18.711Z,15.90
2018-03-28T08:44:18.847Z,12.40
2018-03-28T08:45:18.982Z,12.60
2018-03-28T08:46:19.119Z,13.80
2018-03-28T08:47:19.253Z,13.10
2018-03-28T08:48:19.393Z,15.20
2018-03-28T08:49:19.526Z,12.90
2018-03-28T08:50:19.663Z,14.20
2018-03-28T08:51:19.790Z,13.10
2018-03-28T08:52:19.924Z,13.00
2018-03-28T08:53:20.062Z,15.30
2018-03-28T08:54:20.201Z,14.30
2018-03-28T08:55:20.335Z,11.60
2018-03-28T08:56:20.472Z,12.30
2018-03-28T08:57:20.611Z,12.90
2018-03-28T08:58:20.741Z,16.30
2018-03-28T08:59:20.881Z,14.00
2018-03-28T09:00:21.012Z,11.60
2018-03-28T09:01:21.157Z,11.30
2018-03-28T09:02:21.292Z,12.10
2018-03-28T09:03:21.422Z,11.00
2018-03-28T09:04:21.562Z,12.70
2018-03-28T09:05:21.698Z,11.00
2018-03-28T09:06:21.830Z,12.60
2018-03-28T09:07:21.969Z,16.00
2018-03-28T09:08:22.106Z,19.80
2018-03-28T09:09:22.236Z,12.80
2018-03-28T09:10:22.368Z,15.40
2018-03-28T09:11:22.503Z,13.80
2018-03-28T09:12:22.645Z,14.80
2018-03-28T09:13:22.778Z,12.60
2018-03-28T09:14:22.914Z,15.10
2018-03-28T09:15:23.084Z,13.40
2018-03-28T09:16:23.221Z,10.90
2018-03-28T09:17:23.354Z,11.10
2018-03-28T09:18:23.497Z,13.90
2018-03-28T09:19:23.633Z,15.10
2018-03-28T09:20:23.767Z,15.30
2018-03-28T09:21:23.907Z,18.20
2018-03-28T09:22:24.037Z,20.70
2018-03-28T09:23:24.172Z,21.20
2018-03-28T09:24:24.312Z,14.10
2018-03-28T09:25:24.442Z,14.90
2018-03-28T09:26:24.579Z,14.70
2018-03-28T09:27:24.753Z,11.60
2018-03-28T09:28:24.956Z,16.10
2018-03-28T09:29:25.031Z,12.90
2018-03-28T09:30:25.178Z,13.40
2018-03-28T09:31:25.310Z,11.00
2018-03-28T09:32:25.442Z,13.10
2018-03-28T09:33:25.602Z,21.00
2018-03-28T09:34:25.739Z,12.60
2018-03-28T09:35:25.872Z,9.40
2018-03-28T09:36:26.006Z,10.20
2018-03-28T09:37:26.145Z,14.20
2018-03-28T09:38:26.332Z,11.40
2018-03-28T09:39:26.464Z,11.70
2018-03-28T09:40:26.605Z,12.00
2018-03-28T09:41:26.769Z,14.40
2018-03-28T09:42:26.899Z,13.30
2018-03-28T09:43:27.030Z,11.10
2018-03-28T09:44:27.171Z,11.90
2018-03-28T09:45:27.302Z,12.70
2018-03-28T09:46:27.512Z,10.80
2018-03-28T09:47:27.522Z,12.90
2018-03-28T09:48:27.664Z,14.30
2018-03-28T09:49:27.810Z,14.30
2018-03-28T09:50:28.050Z,10.20
2018-03-28T09:51:28.073Z,11.90
2018-03-28T09:52:28.202Z,12.10
2018-03-28T09:53:28.398Z,11.00
2018-03-28T09:54:28.526Z,10.30
2018-03-28T09:55:28.661Z,12.80
2018-03-28T09:56:28.820Z,10.60
2018-03-28T09:57:28.967Z,12.30
2018-03-28T09:58:29.108Z,10.30
2018-03-28T09:59:29.245Z,12.60
2018-03-28T10:00:29.385Z,10.30
2018-03-28T10:01:29.536Z,10.10
2018-03-28T10:02:29.756Z,11.50
2018-03-28T10:03:29.890Z,10.30
2018-03-28T10:04:29.895Z,10.50
2018-03-28T10:05:30.076Z,11.00
2018-03-28T10:06:30.185Z,10.10
2018-03-28T10:07:30.320Z,9.80
2018-03-28T10:08:31.344Z,11.10
2018-03-28T10:09:30.913Z,10.00
2018-03-28T10:10:30.776Z,10.40
2018-03-28T10:11:31.040Z,9.90
2018-03-28T10:12:31.061Z,9.30
2018-03-28T10:13:31.200Z,10.20
2018-03-28T10:14:31.342Z,10.40
2018-03-28T10:15:31.474Z,10.60
2018-03-28T10:16:31.615Z,10.50
2018-03-28T10:17:31.784Z,9.80
2018-03-28T10:18:31.906Z,10.60
2018-03-28T10:19:32.040Z,11.30
2018-03-28T10:20:32.177Z,9.30
2018-03-28T10:21:32.348Z,10.60
2018-03-28T10:22:32.480Z,9.90
2018-03-28T10:23:32.618Z,10.40
2018-03-28T10:24:32.753Z,10.80
2018-03-28T10:25:32.905Z,8.00
2018-03-28T10:26:33.030Z,9.60
2018-03-28T10:27:33.229Z,12.10
2018-03-28T10:28:33.306Z,9.50
2018-03-28T10:29:33.493Z,8.40
2018-03-28T10:30:33.626Z,8.90
2018-03-28T10:31:33.767Z,8.50
2018-03-28T10:32:33.903Z,9.00
2018-03-28T10:33:34.047Z,9.70
2018-03-28T10:34:34.285Z,10.50
2018-03-28T10:35:34.290Z,9.20
2018-03-28T10:36:34.428Z,9.50
2018-03-28T10:37:34.601Z,8.90
2018-03-28T10:38:34.820Z,10.10
2018-03-28T10:39:34.829Z,8.90
2018-03-28T10:40:34.961Z,8.50
2018-03-28T10:41:35.104Z,8.10
2018-03-28T10:42:35.241Z,8.70
2018-03-28T10:43:35.382Z,8.10
2018-03-28T10:44:35.541Z,8.10
2018-03-28T10:45:35.672Z,8.70
2018-03-28T10:46:35.809Z,8.20
2018-03-28T10:47:35.939Z,7.80
2018-03-28T10:48:36.111Z,8.00
2018-03-28T10:49:36.222Z,8.30
2018-03-28T10:50:36.375Z,8.40
2018-03-28T10:51:36.511Z,8.30
2018-03-28T10:52:36.657Z,7.70
2018-03-28T10:53:36.794Z,9.60
2018-03-28T10:54:36.931Z,8.00
2018-03-28T10:55:37.073Z,8.30
2018-03-28T10:56:37.231Z,6.90
2018-03-28T10:57:37.370Z,7.60
2018-03-28T10:58:37.498Z,7.60
2018-03-28T10:59:37.643Z,7.40
2018-03-28T11:00:37.770Z,7.70
2018-03-28T11:01:37.908Z,7.60
2018-03-28T11:02:38.044Z,7.40
2018-03-28T11:03:38.177Z,8.50
2018-03-28T11:04:38.322Z,9.20
2018-03-28T11:05:38.460Z,7.60
2018-03-28T11:06:38.636Z,7.90
2018-03-28T11:07:38.737Z,6.70
2018-03-28T11:08:38.872Z,7.70
2018-03-28T11:09:39.014Z,7.10
2018-03-28T11:10:39.154Z,7.60
2018-03-28T11:11:39.291Z,7.30
2018-03-28T11:12:39.427Z,7.80
2018-03-28T11:13:39.568Z,6.80
2018-03-28T11:14:39.699Z,8.50
2018-03-28T11:15:39.835Z,7.10
2018-03-28T11:16:39.968Z,8.10
2018-03-28T11:17:40.104Z,5.30
2018-03-28T11:18:40.242Z,4.90
2018-03-28T11:19:40.372Z,5.30
2018-03-28T11:20:40.510Z,5.50
2018-03-28T11:21:40.656Z,4.10
2018-03-28T11:22:40.794Z,4.30
2018-03-28T11:23:40.928Z,4.20
2018-03-28T11:24:41.073Z,4.40
2018-03-28T11:25:41.214Z,4.40
2018-03-28T11:26:41.353Z,3.80
2018-03-28T11:27:41.485Z,4.00
2018-03-28T11:28:41.625Z,4.20
2018-03-28T11:29:41.763Z,5.80
2018-03-28T11:30:41.894Z,4.30
2018-03-28T11:31:42.029Z,4.60
2018-03-28T11:32:42.161Z,4.60
2018-03-28T11:33:42.309Z,5.80
2018-03-28T11:34:42.440Z,4.50
2018-03-28T11:35:42.574Z,4.80
2018-03-28T11:36:42.715Z,4.00
2018-03-28T11:37:42.848Z,4.40
2018-03-28T11:38:42.982Z,4.70
2018-03-28T11:39:43.124Z,4.30
2018-03-28T11:40:43.268Z,4.70
2018-03-28T11:41:43.402Z,4.60
2018-03-28T11:42:43.533Z,5.10
2018-03-28T11:43:43.668Z,4.60
2018-03-28T11:44:43.806Z,6.70
2018-03-28T11:45:43.943Z,5.50
2018-03-28T11:46:44.072Z,6.00
2018-03-28T11:47:44.218Z,5.50
2018-03-28T11:48:44.353Z,6.30
2018-03-28T11:49:44.486Z,5.80
2018-03-28T11:50:44.624Z,5.80
2018-03-28T11:51:44.756Z,6.60
2018-03-28T11:52:44.892Z,6.30
2018-03-28T11:53:45.028Z,6.10
2018-03-28T11:54:45.163Z,6.60
2018-03-28T11:55:45.307Z,6.10
2018-03-28T11:56:45.443Z,6.80
2018-03-28T11:57:45.581Z,7.40
2018-03-28T11:58:45.718Z,6.30
2018-03-28T11:59:45.860Z,6.80
2018-03-28T12:00:45.989Z,7.20
2018-03-28T12:01:46.128Z,8.00
2018-03-28T12:02:46.261Z,6.90
2018-03-28T12:03:46.405Z,12.30
2018-03-28T12:04:46.535Z,42.30
2018-03-28T12:05:46.687Z,30.50
2018-03-28T12:06:46.818Z,18.90
2018-03-28T12:07:46.952Z,17.20
2018-03-28T12:08:47.101Z,32.30
2018-03-28T12:09:47.300Z,16.10
2018-03-28T12:10:47.312Z,14.80
2018-03-28T12:11:47.447Z,9.20
2018-03-28T12:12:47.596Z,15.50
2018-03-28T12:13:47.842Z,10.20
2018-03-28T12:14:47.847Z,10.30
2018-03-28T12:15:47.984Z,13.20
2018-03-28T12:16:48.129Z,11.00
2018-03-28T12:17:48.256Z,8.90
2018-03-28T12:18:48.402Z,9.90
2018-03-28T12:19:48.540Z,13.10
2018-03-28T12:20:48.703Z,17.40
2018-03-28T12:21:48.835Z,9.80
2018-03-28T12:22:49.005Z,15.10
2018-03-28T12:23:49.144Z,8.20
2018-03-28T12:24:49.289Z,9.80
2018-03-28T12:25:49.454Z,10.80
2018-03-28T12:26:49.591Z,10.50
2018-03-28T12:27:49.724Z,10.20
2018-03-28T12:28:49.884Z,9.40
2018-03-28T12:29:50.017Z,11.40
2018-03-28T12:30:50.165Z,13.60
2018-03-28T12:31:50.305Z,13.50
2018-03-28T12:32:50.469Z,13.30
2018-03-28T12:33:50.610Z,27.00
2018-03-28T12:34:50.778Z,12.80
2018-03-28T12:35:50.909Z,13.00
2018-03-28T12:36:51.128Z,15.60
2018-03-28T12:37:51.185Z,51.50
2018-03-28T12:38:51.326Z,53.80
2018-03-28T12:39:51.470Z,19.80
2018-03-28T12:40:51.632Z,16.20
2018-03-28T12:41:51.763Z,21.50
2018-03-28T12:42:51.903Z,13.90
2018-03-28T12:43:52.048Z,11.60
2018-03-28T12:44:52.221Z,24.00
2018-03-28T12:45:52.352Z,16.10
2018-03-28T12:46:52.497Z,12.50
2018-03-28T12:47:52.633Z,17.90
2018-03-28T12:48:52.808Z,17.00
2018-03-28T12:49:53.106Z,33.90
2018-03-28T12:50:52.996Z,34.90
2018-03-28T12:51:53.131Z,36.60
2018-03-28T12:52:53.282Z,44.30
2018-03-28T12:53:53.440Z,111.00
2018-03-28T12:54:54.205Z,22.90
2018-03-28T12:55:53.768Z,23.00
2018-03-28T12:56:55.457Z,18.80
2018-03-28T12:57:53.966Z,16.40
2018-03-28T12:58:58.404Z,17.20
2018-03-28T12:59:54.243Z,16.40
2018-03-28T13:00:54.407Z,16.20